Time;durP1;ratioP1;P1;durP2;ratioP2;P2;SDS_P1;SDS_P2;PMS_P1;PMS_P2;Temp;Humidity;BMP_temperature;BMP_pressure;BME280_temperature;BME280_humidity;BME280_pressure;Samples;Min_cycle;Max_cycle;Signal;HPM_P1;HPM_P2
2023/03/29 00:01:50;;;;;;;3.25;1.52;;;;;;;6.68;96.79;98836.69;4170431;28;20202;-52
2023/03/29 00:03:52;;;;;;;1.60;1.50;;;;;;;6.73;96.41;98841.47;4165981;28;20223;-50
2023/03/29 00:06:04;;;;;;;2.22;1.70;;;;;;;6.76;96.29;98838.31;4168245;28;20227;-50
2023/03/29 00:08:07;;;;;;;1.20;1.10;;;;;;;6.87;96.48;98834.88;4171263;28;20238;-52
2023/03/29 00:10:11;;;;;;;1.90;1.77;;;;;;;6.91;96.75;98842.41;4171417;28;20307;-51
2023/03/29 00:12:13;;;;;;;2.22;1.65;;;;;;;6.84;96.28;98838.06;4177228;28;20208;-51
2023/03/29 00:24:22;;;;;;;1.67;1.58;;;;;;;6.68;96.94;98809.47;4170509;28;20239;-51
2023/03/29 00:26:24;;;;;;;2.97;1.67;;;;;;;6.65;97.63;98811.81;4189451;28;20298;-51
2023/03/29 00:28:26;;;;;;;2.40;2.20;;;;;;;6.72;97.92;98810.72;4186044;28;20256;-51
2023/03/29 00:30:28;;;;;;;2.08;1.98;;;;;;;6.70;97.34;98817.44;4170905;28;20302;-51
2023/03/29 00:32:30;;;;;;;1.98;1.45;;;;;;;6.69;96.86;98810.34;4170143;28;20575;-50
2023/03/29 00:34:34;;;;;;;2.55;1.50;;;;;;;6.71;97.66;98802.78;4150578;28;20230;-51
2023/03/29 00:50:08;;;;;;;2.30;1.60;;;;;;;6.61;98.91;98791.53;4168733;28;20188;-51
2023/03/29 00:52:12;;;;;;;2.00;1.48;;;;;;;6.69;98.30;98794.03;4168446;28;20212;-51
2023/03/29 00:54:17;;;;;;;1.70;1.60;;;;;;;6.65;98.49;98787.34;4190633;28;20200;-51
2023/03/29 01:03:12;;;;;;;2.33;2.00;;;;;;;6.65;99.97;98788.19;4165721;28;20207;-52
2023/03/29 01:05:38;;;;;;;1.80;1.70;;;;;;;6.44;100.00;98784.97;4175614;28;20235;-51
2023/03/29 01:07:56;;;;;;;2.45;1.85;;;;;;;6.43;100.00;98780.56;4157901;28;20296;-51
2023/03/29 01:10:03;;;;;;;2.05;1.58;;;;;;;6.48;100.00;98773.44;4189088;28;20293;-52
2023/03/29 01:12:18;;;;;;;2.03;1.90;;;;;;;6.45;100.00;98770.31;4184444;28;20286;-52
2023/03/29 01:14:35;;;;;;;1.55;1.45;;;;;;;6.42;100.00;98770.75;4167873;28;20600;-51
2023/03/29 01:16:38;;;;;;;2.25;1.55;;;;;;;6.41;100.00;98769.06;4174783;28;20705;-50
2023/03/29 01:18:40;;;;;;;1.52;1.42;;;;;;;6.43;100.00;98772.41;4168633;28;20311;-51
2023/03/29 01:27:06;;;;;;;1.83;1.73;;;;;;;6.36;99.79;98755.31;4167242;28;20292;-53
2023/03/29 01:29:21;;;;;;;1.85;1.60;;;;;;;6.28;99.47;98764.53;4183756;28;20219;-50
2023/03/29 01:31:27;;;;;;;1.30;1.30;;;;;;;6.42;99.92;98759.88;4171423;28;20235;-51
2023/03/29 01:33:43;;;;;;;2.28;1.98;;;;;;;6.29;100.00;98762.69;4168831;28;20203;-51
2023/03/29 01:36:01;;;;;;;2.35;1.85;;;;;;;6.18;100.00;98757.91;4169574;28;20234;-50
2023/03/29 01:38:30;;;;;;;1.90;1.80;;;;;;;6.27;100.00;98762.03;4167171;28;20646;-50
2023/03/29 01:40:32;;;;;;;5.97;2.50;;;;;;;6.22;100.00;98759.97;4162041;28;20649;-49
2023/03/29 01:42:57;;;;;;;2.08;1.98;;;;;;;6.16;100.00;98754.59;4168461;28;20756;-50
2023/03/29 01:45:24;;;;;;;1.75;1.65;;;;;;;6.05;100.00;98763.41;4165352;28;20706;-50
2023/03/29 01:47:49;;;;;;;2.25;1.95;;;;;;;6.02;100.00;98755.69;4154220;28;20699;-51
2023/03/29 01:50:00;;;;;;;3.10;2.20;;;;;;;5.94;100.00;98754.03;4155473;28;20211;-50
2023/03/29 01:52:16;;;;;;;2.30;2.08;;;;;;;5.80;100.00;98748.88;4167860;28;20754;-51
2023/03/29 01:54:18;;;;;;;2.45;2.22;;;;;;;5.83;100.00;98740.31;4166791;28;20287;-50
2023/03/29 01:56:23;;;;;;;2.40;2.13;;;;;;;5.94;100.00;98739.63;4168709;28;20740;-51
2023/03/29 01:58:30;;;;;;;3.85;1.70;;;;;;;5.60;100.00;98737.22;4172907;28;20298;-51
2023/03/29 02:00:33;;;;;;;2.72;2.25;;;;;;;5.73;100.00;98742.59;4164831;28;20208;-50
2023/03/29 02:02:37;;;;;;;2.35;2.15;;;;;;;5.70;100.00;98737.59;4165880;28;20251;-49
2023/03/29 02:04:48;;;;;;;2.03;1.83;;;;;;;5.75;100.00;98745.94;4163530;28;20635;-50
2023/03/29 02:06:53;;;;;;;2.33;2.00;;;;;;;5.77;100.00;98739.22;4173921;28;20208;-51
2023/03/29 02:08:54;;;;;;;2.05;1.95;;;;;;;5.71;100.00;98742.00;4191102;28;20207;-52
2023/03/29 02:10:56;;;;;;;2.22;1.75;;;;;;;5.67;100.00;98738.88;4163955;28;20688;-51
2023/03/29 02:12:58;;;;;;;1.73;1.63;;;;;;;5.67;100.00;98732.59;4166650;28;20220;-51
2023/03/29 02:15:00;;;;;;;2.80;2.13;;;;;;;5.73;100.00;98731.75;4186420;28;20219;-51
2023/03/29 02:17:26;;;;;;;2.40;2.20;;;;;;;5.79;100.00;98730.88;4169161;28;20240;-51
2023/03/29 02:19:28;;;;;;;1.95;1.65;;;;;;;5.66;100.00;98730.94;4169002;28;20205;-52
2023/03/29 02:21:35;;;;;;;1.65;1.52;;;;;;;5.57;100.00;98729.50;4171974;28;20240;-51
2023/03/29 02:23:44;;;;;;;2.70;2.50;;;;;;;5.48;100.00;98728.91;4168107;28;20208;-50
2023/03/29 02:25:46;;;;;;;8.88;3.08;;;;;;;5.46;100.00;98730.16;4168799;28;20220;-50
2023/03/29 02:27:49;;;;;;;3.03;2.47;;;;;;;5.38;100.00;98722.25;4176149;28;20262;-50
2023/03/29 02:29:51;;;;;;;3.50;2.60;;;;;;;5.50;100.00;98723.25;4186417;28;20217;-50
2023/03/29 02:32:22;;;;;;;2.33;2.13;;;;;;;5.46;100.00;98717.44;4185316;28;20319;-50
2023/03/29 02:34:25;;;;;;;2.22;2.13;;;;;;;5.26;100.00;98723.94;4152571;28;20211;-50
2023/03/29 02:36:33;;;;;;;2.00;1.63;;;;;;;5.34;100.00;98721.00;4178110;28;20207;-50
2023/03/29 02:38:36;;;;;;;3.17;2.03;;;;;;;5.30;100.00;98714.34;4168961;28;20212;-51
2023/03/29 02:40:39;;;;;;;2.10;1.92;;;;;;;5.36;100.00;98716.22;4174396;28;20290;-50
2023/03/29 02:42:43;;;;;;;5.10;1.98;;;;;;;5.25;100.00;98708.72;4156814;28;20301;-52
2023/03/29 02:44:48;;;;;;;3.70;2.97;;;;;;;5.04;100.00;98717.09;4186634;28;20241;-50
2023/03/29 02:46:55;;;;;;;2.15;1.60;;;;;;;5.12;100.00;98724.19;4172560;28;20243;-50
2023/03/29 02:48:57;;;;;;;2.03;1.83;;;;;;;4.71;100.00;98716.25;4174474;28;20200;-50
2023/03/29 02:51:01;;;;;;;2.00;1.73;;;;;;;4.76;100.00;98721.91;4172258;28;20323;-50
2023/03/29 02:53:08;;;;;;;2.75;1.83;;;;;;;4.95;100.00;98725.66;4172894;28;20250;-50
2023/03/29 02:55:13;;;;;;;2.83;2.63;;;;;;;4.90;100.00;98733.56;4186507;28;20224;-50
2023/03/29 02:57:15;;;;;;;3.00;1.60;;;;;;;5.00;100.00;98729.38;4156309;28;20209;-51
2023/03/29 02:59:21;;;;;;;1.70;1.60;;;;;;;4.89;100.00;98732.75;4171423;28;20255;-50
2023/03/29 03:01:23;;;;;;;2.15;2.05;;;;;;;4.92;100.00;98724.19;4186368;28;20282;-50
2023/03/29 03:03:26;;;;;;;2.80;1.40;;;;;;;4.87;100.00;98718.53;4187973;28;20207;-50
2023/03/29 03:05:28;;;;;;;2.03;1.80;;;;;;;4.86;100.00;98719.59;4170497;28;20716;-49
2023/03/29 03:07:29;;;;;;;2.70;1.88;;;;;;;4.90;100.00;98707.31;4178636;28;20213;-50
2023/03/29 03:09:34;;;;;;;2.20;1.92;;;;;;;4.88;100.00;98713.97;4160537;28;20288;-49
2023/03/29 03:11:36;;;;;;;1.80;1.65;;;;;;;4.82;100.00;98710.22;4154981;28;20232;-50
2023/03/29 03:13:37;;;;;;;1.70;1.25;;;;;;;4.78;100.00;98703.53;4169121;28;20658;-51
2023/03/29 03:15:41;;;;;;;1.45;1.38;;;;;;;4.73;100.00;98700.63;4176450;28;21196;-50
2023/03/29 03:17:43;;;;;;;2.60;1.98;;;;;;;4.68;100.00;98697.69;4170060;28;20242;-50
2023/03/29 03:19:45;;;;;;;2.00;1.80;;;;;;;4.65;100.00;98708.13;4168724;28;20236;-51
2023/03/29 03:21:47;;;;;;;2.00;1.80;;;;;;;4.58;100.00;98708.13;4203489;28;20563;-50
2023/03/29 03:23:49;;;;;;;2.33;2.13;;;;;;;4.63;100.00;98705.63;4170348;28;20586;-50
2023/03/29 03:25:51;;;;;;;1.70;1.50;;;;;;;4.61;100.00;98702.28;4170154;28;20302;-50
2023/03/29 03:27:53;;;;;;;2.17;2.08;;;;;;;4.57;100.00;98701.03;4170700;28;20756;-50
2023/03/29 03:29:54;;;;;;;1.67;1.58;;;;;;;4.54;100.00;98701.44;4184720;28;20207;-51
2023/03/29 03:31:56;;;;;;;1.92;1.55;;;;;;;4.55;100.00;98697.72;4184520;28;20301;-50
2023/03/29 03:33:58;;;;;;;2.58;2.00;;;;;;;4.56;100.00;98704.81;4186050;28;20241;-50
2023/03/29 03:36:03;;;;;;;1.55;1.42;;;;;;;4.50;100.00;98711.03;4172282;28;20216;-51
2023/03/29 03:38:06;;;;;;;3.42;1.52;;;;;;;4.50;100.00;98707.50;4166704;28;20204;-50
2023/03/29 03:40:10;;;;;;;2.80;2.65;;;;;;;4.59;100.00;98701.66;4176110;28;20214;-49
2023/03/29 03:42:12;;;;;;;1.65;1.52;;;;;;;4.52;100.00;98708.94;4154588;28;20205;-50
2023/03/29 03:44:14;;;;;;;2.40;1.73;;;;;;;4.51;100.00;98701.88;4186649;28;20701;-49
2023/03/29 03:46:16;;;;;;;2.63;1.60;;;;;;;4.47;100.00;98695.19;4181078;28;20235;-51
2023/03/29 03:48:19;;;;;;;1.70;1.60;;;;;;;4.34;100.00;98694.34;4169567;28;20657;-51
2023/03/29 03:50:21;;;;;;;3.15;1.55;;;;;;;4.22;100.00;98688.72;4174260;28;21040;-51
2023/03/29 03:52:26;;;;;;;1.70;1.40;;;;;;;4.20;100.00;98687.25;4171233;28;20235;-52
2023/03/29 03:54:28;;;;;;;1.80;1.70;;;;;;;4.17;100.00;98687.66;4174652;28;20283;-50
2023/03/29 03:56:29;;;;;;;1.70;1.52;;;;;;;4.21;100.00;98683.50;4155255;28;20308;-51
2023/03/29 03:58:31;;;;;;;2.03;1.63;;;;;;;4.35;100.00;98696.03;4169004;28;20253;-52
2023/03/29 04:00:33;;;;;;;4.13;1.73;;;;;;;4.27;100.00;98694.31;4170194;28;20300;-51
2023/03/29 04:02:38;;;;;;;3.53;2.97;;;;;;;4.17;100.00;98693.91;4169367;28;20682;-50
2023/03/29 04:04:45;;;;;;;3.85;3.20;;;;;;;4.08;100.00;98695.13;4168824;28;20238;-50
2023/03/29 04:06:47;;;;;;;3.80;2.83;;;;;;;4.06;100.00;98696.38;4169952;28;20550;-50
2023/03/29 04:08:48;;;;;;;3.67;3.35;;;;;;;4.06;100.00;98696.38;4171764;28;20307;-52
2023/03/29 04:10:55;;;;;;;3.60;2.38;;;;;;;4.08;100.00;98689.69;4172135;28;20307;-50
2023/03/29 04:13:04;;;;;;;3.95;3.10;;;;;;;4.09;100.00;98691.41;4172974;28;20205;-51
2023/03/29 04:15:06;;;;;;;2.88;2.67;;;;;;;4.05;100.00;98690.13;4169765;28;20219;-52
2023/03/29 04:17:08;;;;;;;2.97;2.70;;;;;;;3.98;100.00;98694.69;4170992;28;20246;-50
2023/03/29 04:19:10;;;;;;;2.83;2.63;;;;;;;4.00;100.00;98702.63;4166181;28;20215;-50
2023/03/29 04:21:12;;;;;;;4.55;2.90;;;;;;;4.00;100.00;98703.44;4173911;28;20695;-50
2023/03/29 04:23:14;;;;;;;3.25;2.95;;;;;;;4.00;100.00;98708.03;4189479;28;20282;-51
2023/03/29 04:25:16;;;;;;;4.88;2.28;;;;;;;4.05;100.00;98711.78;4172039;28;20320;-50
2023/03/29 04:27:18;;;;;;;3.45;1.92;;;;;;;4.04;100.00;98707.41;4167500;28;20303;-51
2023/03/29 04:29:20;;;;;;;3.05;1.88;;;;;;;3.96;100.00;98707.59;4153903;28;20208;-51
2023/03/29 04:31:21;;;;;;;2.30;2.10;;;;;;;3.87;100.00;98706.09;4169459;28;20290;-50
2023/03/29 04:33:23;;;;;;;2.33;2.13;;;;;;;3.81;100.00;98709.63;4163898;28;20690;-51
2023/03/29 04:35:25;;;;;;;1.98;1.75;;;;;;;3.74;100.00;98692.53;4155458;28;20228;-51
2023/03/29 04:37:28;;;;;;;3.00;1.80;;;;;;;3.77;100.00;98694.84;4168185;28;20561;-50
2023/03/29 04:39:32;;;;;;;1.77;1.67;;;;;;;3.85;100.00;98699.22;4167660;28;20308;-50
2023/03/29 04:41:34;;;;;;;2.13;2.00;;;;;;;3.79;100.00;98698.16;4167861;28;20209;-50
2023/03/29 04:43:40;;;;;;;3.10;2.10;;;;;;;3.69;100.00;98694.19;4156860;28;20244;-52
2023/03/29 04:45:42;;;;;;;3.67;1.90;;;;;;;3.65;100.00;98703.72;4166862;28;20223;-51
2023/03/29 04:47:44;;;;;;;3.17;2.97;;;;;;;3.62;100.00;98710.41;4169605;28;20668;-50
2023/03/29 04:49:46;;;;;;;3.63;2.75;;;;;;;3.65;100.00;98707.28;4169893;28;20662;-50
2023/03/29 04:51:48;;;;;;;3.03;2.72;;;;;;;3.73;100.00;98704.38;4165768;28;20251;-50
2023/03/29 04:53:50;;;;;;;2.90;2.60;;;;;;;3.74;100.00;98695.22;4150230;28;20389;-51
2023/03/29 04:55:54;;;;;;;2.58;2.38;;;;;;;3.55;100.00;98698.69;4183205;28;20820;-50
2023/03/29 04:57:56;;;;;;;3.20;2.90;;;;;;;3.47;100.00;98701.56;4198652;28;20200;-51
2023/03/29 04:59:57;;;;;;;3.63;3.40;;;;;;;3.44;100.00;98701.13;4167924;28;20213;-51
2023/03/29 05:02:01;;;;;;;8.50;2.60;;;;;;;3.45;100.00;98703.66;4201141;28;20311;-50
2023/03/29 05:04:03;;;;;;;2.35;2.15;;;;;;;3.49;100.00;98688.69;4169370;28;20203;-50
2023/03/29 05:06:08;;;;;;;2.80;2.60;;;;;;;3.70;100.00;98695.84;4167506;28;20269;-50
2023/03/29 05:08:09;;;;;;;2.13;2.03;;;;;;;3.61;100.00;98699.78;4199485;28;20656;-51
2023/03/29 05:10:11;;;;;;;3.38;3.17;;;;;;;3.49;100.00;98686.00;4168466;28;20299;-50
2023/03/29 05:12:13;;;;;;;3.35;3.08;;;;;;;3.48;100.00;98695.13;4199426;28;20833;-51
2023/03/29 05:14:14;;;;;;;3.08;2.88;;;;;;;3.41;100.00;98696.94;4187290;28;20258;-51
2023/03/29 05:16:17;;;;;;;3.45;3.15;;;;;;;3.17;100.00;98700.16;4145996;28;20246;-49
2023/03/29 05:18:26;;;;;;;2.47;2.28;;;;;;;3.14;100.00;98697.84;4167216;28;20211;-48
2023/03/29 05:20:42;;;;;;;2.67;2.47;;;;;;;3.06;100.00;98703.41;4167565;28;20208;-49
2023/03/29 05:22:49;;;;;;;2.50;2.30;;;;;;;3.00;100.00;98701.50;4183544;28;20211;-49
2023/03/29 05:24:51;;;;;;;2.58;2.38;;;;;;;3.10;100.00;98698.44;4199152;28;20230;-48
2023/03/29 05:26:53;;;;;;;2.63;2.42;;;;;;;3.11;100.00;98690.16;4169093;28;20211;-48
2023/03/29 05:28:55;;;;;;;3.03;2.72;;;;;;;3.12;100.00;98702.63;4166876;28;20655;-48
2023/03/29 05:31:02;;;;;;;2.60;2.40;;;;;;;3.19;100.00;98708.06;4172809;28;20232;-48
2023/03/29 05:33:05;;;;;;;2.75;2.38;;;;;;;3.26;100.00;98709.78;4173367;28;20233;-49
2023/03/29 05:35:08;;;;;;;3.17;2.88;;;;;;;3.31;100.00;98707.31;4171923;28;20702;-49
2023/03/29 05:37:09;;;;;;;2.35;2.15;;;;;;;3.35;100.00;98705.88;4174731;28;20214;-48
2023/03/29 05:39:11;;;;;;;2.78;2.58;;;;;;;3.32;100.00;98708.97;4172928;28;20304;-48
2023/03/29 05:41:14;;;;;;;2.28;1.95;;;;;;;3.30;100.00;98711.06;4164176;28;20204;-48
2023/03/29 05:43:16;;;;;;;2.00;1.90;;;;;;;3.30;100.00;98715.63;4168189;28;20678;-50
2023/03/29 05:45:19;;;;;;;2.40;2.25;;;;;;;3.33;100.00;98710.66;4165809;28;20322;-49
2023/03/29 05:47:20;;;;;;;2.28;1.80;;;;;;;3.33;100.00;98705.25;4166320;28;20304;-48
2023/03/29 05:49:22;;;;;;;4.07;3.67;;;;;;;3.35;100.00;98708.56;4150370;28;20295;-48
2023/03/29 05:51:24;;;;;;;2.83;2.00;;;;;;;3.39;100.00;98715.25;4155020;28;20228;-47
2023/03/29 05:53:27;;;;;;;1.85;1.75;;;;;;;3.41;100.00;98710.47;4167074;28;20298;-48
2023/03/29 05:55:30;;;;;;;2.95;2.30;;;;;;;3.44;100.00;98712.78;4182760;28;20310;-48
2023/03/29 05:57:36;;;;;;;2.30;2.20;;;;;;;3.45;100.00;98713.63;4181614;28;20208;-48
2023/03/29 05:59:41;;;;;;;3.58;2.65;;;;;;;3.51;100.00;98719.06;4152537;28;20251;-49
2023/03/29 06:01:46;;;;;;;3.33;3.03;;;;;;;3.50;100.00;98717.41;4150336;28;20208;-50
2023/03/29 06:03:51;;;;;;;2.92;2.70;;;;;;;3.52;100.00;98714.47;4150027;28;20205;-51
2023/03/29 06:06:01;;;;;;;6.45;4.18;;;;;;;3.60;100.00;98717.84;4198513;28;20305;-51
2023/03/29 06:08:04;;;;;;;11.30;6.20;;;;;;;3.69;100.00;98716.66;4183869;28;20257;-51
2023/03/29 06:10:08;;;;;;;9.43;8.38;;;;;;;3.73;100.00;98717.91;4190808;28;20434;-49
2023/03/29 06:12:14;;;;;;;6.65;5.95;;;;;;;3.77;100.00;98718.34;4183816;28;20215;-49
2023/03/29 06:14:19;;;;;;;6.25;5.65;;;;;;;3.82;100.00;98711.31;4168145;28;20254;-49
2023/03/29 06:16:22;;;;;;;5.30;4.90;;;;;;;3.87;100.00;98711.50;4167018;28;20200;-50
2023/03/29 06:18:26;;;;;;;5.70;5.03;;;;;;;3.96;100.00;98713.03;4188848;28;20203;-49
2023/03/29 06:20:32;;;;;;;5.15;3.55;;;;;;;3.96;100.00;98723.00;4169215;28;20293;-49
2023/03/29 06:22:41;;;;;;;3.88;3.58;;;;;;;4.02;100.00;98728.44;4185781;28;20211;-49
2023/03/29 06:24:46;;;;;;;3.20;2.95;;;;;;;4.06;100.00;98729.69;4182346;28;20235;-51
2023/03/29 06:26:52;;;;;;;4.22;3.78;;;;;;;4.13;100.00;98730.53;4200893;28;20313;-48
2023/03/29 06:28:56;;;;;;;4.55;4.00;;;;;;;4.21;100.00;98733.06;4169157;28;20209;-49
2023/03/29 06:31:00;;;;;;;3.85;3.55;;;;;;;4.22;100.00;98739.31;4165583;28;20228;-49
2023/03/29 06:33:07;;;;;;;3.80;3.20;;;;;;;4.24;100.00;98737.22;4170460;28;20291;-49
2023/03/29 06:35:11;;;;;;;3.72;3.33;;;;;;;4.24;100.00;98731.81;4169456;28;20251;-48
2023/03/29 06:37:13;;;;;;;4.50;4.20;;;;;;;4.12;100.00;98718.06;4167079;28;20273;-48
2023/03/29 06:39:18;;;;;;;4.60;4.20;;;;;;;4.24;100.00;98727.25;4172676;28;20204;-48
2023/03/29 06:41:20;;;;;;;4.13;3.75;;;;;;;4.31;100.00;98733.50;4158843;28;20259;-48
2023/03/29 06:43:22;;;;;;;3.65;3.35;;;;;;;4.35;100.00;98732.03;4167474;28;20212;-49
2023/03/29 06:45:28;;;;;;;4.35;3.97;;;;;;;4.36;100.00;98728.31;4165992;28;20219;-49
2023/03/29 06:47:31;;;;;;;3.70;3.40;;;;;;;4.38;100.00;98734.34;4184672;28;20243;-49
2023/03/29 06:49:33;;;;;;;4.57;4.28;;;;;;;4.36;100.00;98731.03;4166486;28;20219;-49
2023/03/29 06:51:36;;;;;;;3.90;3.60;;;;;;;4.34;100.00;98733.09;4184098;28;20238;-48
2023/03/29 06:53:38;;;;;;;3.63;3.33;;;;;;;4.44;100.00;98738.97;4157824;28;20276;-49
2023/03/29 06:55:43;;;;;;;3.90;3.60;;;;;;;4.51;100.00;98745.22;4171033;28;20317;-49
2023/03/29 06:57:45;;;;;;;3.60;3.33;;;;;;;4.67;100.00;98747.53;4168241;28;20231;-49
2023/03/29 06:59:47;;;;;;;3.97;3.67;;;;;;;4.75;100.00;98744.63;4167946;28;20228;-50
2023/03/29 07:01:53;;;;;;;4.75;4.20;;;;;;;4.86;100.00;98746.69;4168000;28;20212;-49
2023/03/29 07:03:56;;;;;;;3.63;3.03;;;;;;;4.93;100.00;98744.81;4168400;28;20301;-49
2023/03/29 07:06:02;;;;;;;4.45;3.83;;;;;;;5.07;100.00;98753.81;4170379;28;20275;-50
2023/03/29 07:10:15;;;;;;;4.32;4.03;;;;;;;5.10;100.00;98751.50;4165136;28;20216;-49
2023/03/29 07:12:21;;;;;;;4.75;4.35;;;;;;;5.16;100.00;98751.47;4171562;28;20220;-49
2023/03/29 07:14:28;;;;;;;3.95;3.65;;;;;;;5.25;100.00;98744.81;4171146;28;20252;-50
2023/03/29 07:16:31;;;;;;;3.90;3.60;;;;;;;5.36;100.00;98756.91;4192631;28;20200;-50
2023/03/29 07:18:40;;;;;;;3.70;3.38;;;;;;;5.33;100.00;98741.03;4174102;28;20296;-49
2023/03/29 07:20:42;;;;;;;4.13;3.63;;;;;;;5.37;100.00;98748.53;4156804;28;20212;-50
2023/03/29 07:22:46;;;;;;;3.75;3.38;;;;;;;5.49;100.00;98751.44;4161239;28;20255;-48
2023/03/29 07:24:48;;;;;;;4.03;3.63;;;;;;;5.59;100.00;98747.25;4158205;28;20708;-49
2023/03/29 07:26:51;;;;;;;4.30;3.90;;;;;;;5.71;100.00;98747.41;4160951;28;20255;-49
2023/03/29 07:29:05;;;;;;;4.07;3.75;;;;;;;5.77;100.00;98747.38;4170399;28;20303;-50
2023/03/29 07:31:09;;;;;;;6.95;3.83;;;;;;;5.83;100.00;98753.88;4176781;28;20252;-49
2023/03/29 07:33:12;;;;;;;4.35;3.95;;;;;;;5.92;100.00;98752.59;4161259;28;20306;-49
2023/03/29 07:35:14;;;;;;;5.72;3.70;;;;;;;5.91;100.00;98749.06;4159573;28;20233;-50
2023/03/29 07:37:16;;;;;;;5.40;4.25;;;;;;;6.02;100.00;98740.22;4192203;28;20291;-49
2023/03/29 07:39:18;;;;;;;3.85;3.55;;;;;;;6.05;100.00;98744.38;4175232;28;20704;-49
2023/03/29 07:41:20;;;;;;;3.88;3.53;;;;;;;6.08;100.00;98754.84;4169238;28;20679;-50
2023/03/29 07:43:23;;;;;;;8.45;4.05;;;;;;;6.11;100.00;98751.69;4179203;28;20211;-51
2023/03/29 07:45:27;;;;;;;8.50;4.20;;;;;;;6.05;100.00;98749.81;4169425;28;20255;-50
2023/03/29 07:47:29;;;;;;;4.72;4.07;;;;;;;6.17;100.00;98745.38;4184697;28;20666;-49
2023/03/29 07:49:31;;;;;;;3.72;3.42;;;;;;;6.28;100.00;98764.53;4168393;28;20208;-49
2023/03/29 07:51:35;;;;;;;4.53;4.13;;;;;;;6.27;100.00;98760.16;4170617;28;20212;-49
2023/03/29 07:53:37;;;;;;;4.72;4.28;;;;;;;6.40;100.00;98760.09;4177375;28;20216;-49
2023/03/29 07:55:53;;;;;;;5.30;4.72;;;;;;;6.43;100.00;98762.38;4156034;28;20217;-49
2023/03/29 07:57:55;;;;;;;4.70;4.32;;;;;;;6.43;100.00;98753.41;4183234;28;20658;-49
2023/03/29 07:59:57;;;;;;;5.72;4.13;;;;;;;6.53;100.00;98756.47;4171658;28;20224;-49
2023/03/29 08:01:59;;;;;;;4.45;4.05;;;;;;;6.63;100.00;98754.09;4168547;28;20612;-49
2023/03/29 08:04:01;;;;;;;4.55;3.85;;;;;;;6.67;100.00;98755.31;4153813;28;20208;-49
2023/03/29 08:06:03;;;;;;;4.72;4.32;;;;;;;6.75;100.00;98755.06;4175007;28;20752;-50
2023/03/29 08:08:06;;;;;;;4.05;3.70;;;;;;;6.86;100.00;98751.63;4185054;28;20294;-49
2023/03/29 08:10:10;;;;;;;4.35;3.92;;;;;;;6.88;100.00;98746.81;4174299;28;20239;-50
2023/03/29 08:12:12;;;;;;;8.68;5.07;;;;;;;6.92;100.00;98742.59;4154724;28;20217;-49
2023/03/29 08:14:14;;;;;;;5.53;4.32;;;;;;;6.95;100.00;98742.97;4171779;28;20207;-49
2023/03/29 08:16:17;;;;;;;5.63;4.30;;;;;;;7.02;100.00;98734.78;4170535;28;20200;-49
2023/03/29 08:18:19;;;;;;;5.63;4.00;;;;;;;7.16;100.00;98728.16;4176050;28;20216;-49
2023/03/29 08:20:21;;;;;;;5.60;4.20;;;;;;;7.28;100.00;98734.53;4170828;28;20239;-48
2023/03/29 08:22:23;;;;;;;9.00;4.85;;;;;;;7.36;100.00;98726.09;4171056;28;20729;-49
2023/03/29 08:24:25;;;;;;;4.97;3.88;;;;;;;7.46;100.00;98731.81;4167721;28;20209;-50
2023/03/29 08:26:32;;;;;;;4.90;4.40;;;;;;;7.59;100.00;98726.25;4151509;28;20220;-50
2023/03/29 08:28:34;;;;;;;5.35;4.85;;;;;;;7.73;100.00;98736.78;4167521;28;20655;-49
2023/03/29 08:30:36;;;;;;;4.72;4.32;;;;;;;7.88;100.00;98747.31;4168686;28;20216;-48
2023/03/29 08:32:38;;;;;;;5.68;5.20;;;;;;;8.03;100.00;98728.66;4198841;28;20235;-47
2023/03/29 08:34:39;;;;;;;4.90;4.28;;;;;;;8.10;100.00;98729.41;4189864;28;20632;-48
2023/03/29 08:36:41;;;;;;;13.25;4.20;;;;;;;8.29;100.00;98717.47;4167746;28;20291;-48
2023/03/29 08:38:45;;;;;;;4.97;3.92;;;;;;;8.59;100.00;98718.28;4167276;28;20594;-48
2023/03/29 08:40:47;;;;;;;7.60;3.88;;;;;;;8.83;100.00;98725.47;4167288;28;20654;-48
2023/03/29 08:43:13;;;;;;;3.85;3.53;;;;;;;9.08;100.00;98728.84;4179099;28;20230;-49
2023/03/29 08:45:34;;;;;;;3.65;3.20;;;;;;;9.46;100.00;98721.00;4172214;28;20230;-48
2023/03/29 08:47:58;;;;;;;15.63;4.72;;;;;;;9.77;99.92;98720.63;4182459;28;20727;-47
2023/03/29 08:50:00;;;;;;;4.75;3.53;;;;;;;9.62;98.32;98715.66;4183412;28;20203;-49
2023/03/29 08:52:05;;;;;;;5.80;4.53;;;;;;;10.01;99.30;98722.25;4167789;28;20230;-49
2023/03/29 08:54:17;;;;;;;4.43;3.83;;;;;;;9.95;98.07;98715.03;4170061;28;20624;-49
2023/03/29 08:56:26;;;;;;;3.50;3.20;;;;;;;9.93;96.75;98707.06;4155517;28;20633;-49
2023/03/29 08:58:31;;;;;;;5.25;3.42;;;;;;;10.12;96.01;98703.13;4168573;28;20782;-49
2023/03/29 09:00:38;;;;;;;3.78;3.38;;;;;;;10.17;96.41;98711.44;4167682;28;20218;-49
2023/03/29 09:02:40;;;;;;;4.03;2.10;;;;;;;10.30;93.89;98707.56;4169891;28;20212;-49
2023/03/29 09:04:42;;;;;;;5.63;2.70;;;;;;;10.48;93.33;98696.44;4168486;28;20716;-49
2023/03/29 09:06:44;;;;;;;9.35;2.75;;;;;;;10.65;92.86;98705.50;4175065;28;20757;-49
2023/03/29 09:08:48;;;;;;;5.57;2.42;;;;;;;10.79;90.36;98711.25;4168309;28;20243;-49
2023/03/29 09:11:17;;;;;;;3.75;3.38;;;;;;;10.98;91.08;98709.13;4167039;28;20658;-49
2023/03/29 09:13:34;;;;;;;3.90;2.60;;;;;;;11.20;89.49;98716.38;4164570;28;20299;-48
2023/03/29 09:15:44;;;;;;;2.83;2.65;;;;;;;11.40;92.02;98721.31;4163982;28;20230;-50
2023/03/29 09:17:58;;;;;;;3.20;2.90;;;;;;;11.53;90.50;98719.09;4166141;28;20607;-50
2023/03/29 09:20:03;;;;;;;4.18;2.42;;;;;;;11.68;89.99;98724.81;4164517;28;20303;-52
2023/03/29 09:22:15;;;;;;;3.80;3.40;;;;;;;11.87;89.91;98728.09;4181054;28;20247;-49
2023/03/29 09:24:45;;;;;;;3.00;2.70;;;;;;;11.96;91.94;98723.84;4166489;28;20291;-49
2023/03/29 09:26:52;;;;;;;5.15;3.33;;;;;;;12.02;88.39;98729.13;4161663;28;20227;-49
2023/03/29 09:29:03;;;;;;;8.63;3.03;;;;;;;11.98;85.83;98730.72;4198833;28;20752;-50
2023/03/29 09:31:17;;;;;;;4.60;2.20;;;;;;;11.60;83.29;98721.66;4170046;28;20206;-50
2023/03/29 09:33:41;;;;;;;6.95;2.88;;;;;;;11.21;83.70;98718.03;4165936;28;20299;-49
2023/03/29 09:35:52;;;;;;;4.15;2.03;;;;;;;11.34;83.32;98723.16;4167222;28;20238;-49
2023/03/29 09:37:54;;;;;;;2.55;2.28;;;;;;;11.45;86.05;98711.25;4170265;28;20232;-49
2023/03/29 09:39:56;;;;;;;2.42;2.17;;;;;;;11.62;83.60;98714.84;4169795;28;20250;-48
2023/03/29 09:42:07;;;;;;;3.70;2.80;;;;;;;11.82;83.62;98709.66;4165708;28;20733;-48
2023/03/29 09:44:15;;;;;;;3.28;2.60;;;;;;;11.89;83.39;98710.31;4153611;28;21067;-50
2023/03/29 09:46:41;;;;;;;2.88;2.50;;;;;;;12.05;81.90;98709.41;4168466;28;20232;-50
2023/03/29 09:48:46;;;;;;;3.30;2.60;;;;;;;12.21;80.43;98704.94;4165509;28;20216;-50
2023/03/29 09:50:50;;;;;;;3.10;2.78;;;;;;;12.39;80.72;98705.47;4183380;28;20254;-50
2023/03/29 09:52:51;;;;;;;4.93;2.78;;;;;;;12.57;78.42;98691.38;4166545;28;20209;-48
2023/03/29 09:54:53;;;;;;;4.72;2.78;;;;;;;12.91;77.77;98692.81;4165732;28;20334;-48
2023/03/29 09:56:56;;;;;;;4.35;2.65;;;;;;;13.68;77.85;98695.94;4167464;28;20247;-47
2023/03/29 09:58:58;;;;;;;2.92;2.53;;;;;;;14.03;74.47;98690.66;4164576;28;20207;-48
2023/03/29 10:01:03;;;;;;;3.08;2.83;;;;;;;14.08;72.83;98677.72;4165064;28;20208;-48
2023/03/29 10:03:05;;;;;;;2.80;2.40;;;;;;;13.73;71.70;98679.47;4163306;28;20234;-48
2023/03/29 10:05:14;;;;;;;2.50;1.90;;;;;;;13.50;71.02;98680.69;4165748;28;20279;-47
2023/03/29 10:07:19;;;;;;;4.35;1.88;;;;;;;13.82;69.81;98675.94;4155640;28;20867;-48
2023/03/29 10:09:26;;;;;;;2.38;1.88;;;;;;;13.67;69.33;98675.88;4199760;28;20248;-48
2023/03/29 10:11:31;;;;;;;2.10;1.77;;;;;;;13.56;69.87;98663.13;4166939;28;20245;-48
2023/03/29 10:13:36;;;;;;;2.50;2.03;;;;;;;13.81;67.71;98676.19;4164314;28;20275;-48
2023/03/29 10:15:38;;;;;;;4.40;1.73;;;;;;;13.99;67.26;98673.84;4165929;28;20266;-48
2023/03/29 10:17:41;;;;;;;3.30;1.98;;;;;;;13.92;67.95;98665.00;4166546;28;20208;-48
2023/03/29 10:19:51;;;;;;;3.92;1.70;;;;;;;13.82;67.34;98670.44;4151663;28;20317;-47
2023/03/29 10:21:54;;;;;;;1.90;1.80;;;;;;;14.14;66.71;98654.63;4167059;28;20298;-47
2023/03/29 10:23:58;;;;;;;2.38;1.58;;;;;;;15.06;68.09;98651.81;4154443;28;20213;-48
2023/03/29 10:26:03;;;;;;;3.40;1.48;;;;;;;15.14;65.06;98648.50;4168892;28;20762;-47
2023/03/29 10:28:13;;;;;;;2.83;1.67;;;;;;;14.99;66.26;98643.84;4165839;28;20299;-48
2023/03/29 10:30:21;;;;;;;2.95;2.08;;;;;;;15.30;65.62;98642.72;4166688;28;20245;-48